sensor_id;sensor_type;location;lat;lon;timestamp;P1;durP1;ratioP1;P2;durP2;ratioP2
45007;SDS011;30743;52.008;5.644;2024-02-28T00:01:21;26.65;;;14.57;;
45007;SDS011;30743;52.008;5.644;2024-02-28T00:03:47;27.95;;;14.93;;
45007;SDS011;30743;52.008;5.644;2024-02-28T00:06:15;25.08;;;14.52;;
45007;SDS011;30743;52.008;5.644;2024-02-28T00:08:41;31.57;;;15.03;;
45007;SDS011;30743;52.008;5.644;2024-02-28T00:11:07;33.35;;;14.57;;
45007;SDS011;30743;52.008;5.644;2024-02-28T00:13:32;30.30;;;15.77;;
45007;SDS011;30743;52.008;5.644;2024-02-28T00:15:58;44.83;;;15.60;;
45007;SDS011;30743;52.008;5.644;2024-02-28T00:18:23;29.58;;;13.68;;
45007;SDS011;30743;52.008;5.644;2024-02-28T00:20:49;29.92;;;14.13;;
45007;SDS011;30743;52.008;5.644;2024-02-28T00:23:14;30.20;;;14.60;;
45007;SDS011;30743;52.008;5.644;2024-02-28T00:25:40;32.53;;;14.90;;
45007;SDS011;30743;52.008;5.644;2024-02-28T00:28:06;30.50;;;14.60;;
45007;SDS011;30743;52.008;5.644;2024-02-28T00:30:31;59.65;;;15.75;;
45007;SDS011;30743;52.008;5.644;2024-02-28T00:32:57;44.00;;;15.45;;
45007;SDS011;30743;52.008;5.644;2024-02-28T00:35:24;47.20;;;15.55;;
45007;SDS011;30743;52.008;5.644;2024-02-28T00:37:49;39.50;;;15.32;;
45007;SDS011;30743;52.008;5.644;2024-02-28T00:40:15;39.15;;;15.55;;
45007;SDS011;30743;52.008;5.644;2024-02-28T00:42:41;42.75;;;15.73;;
45007;SDS011;30743;52.008;5.644;2024-02-28T00:45:08;39.28;;;15.38;;
45007;SDS011;30743;52.008;5.644;2024-02-28T00:47:34;79.03;;;17.02;;
45007;SDS011;30743;52.008;5.644;2024-02-28T00:50:00;72.47;;;16.45;;
45007;SDS011;30743;52.008;5.644;2024-02-28T00:52:28;74.90;;;17.92;;
45007;SDS011;30743;52.008;5.644;2024-02-28T00:54:54;121.20;;;19.77;;
45007;SDS011;30743;52.008;5.644;2024-02-28T00:57:19;77.70;;;17.73;;
45007;SDS011;30743;52.008;5.644;2024-02-28T00:59:45;105.85;;;19.33;;
45007;SDS011;30743;52.008;5.644;2024-02-28T01:02:10;125.22;;;19.92;;
45007;SDS011;30743;52.008;5.644;2024-02-28T01:04:36;131.48;;;19.48;;
45007;SDS011;30743;52.008;5.644;2024-02-28T01:07:02;99.68;;;18.30;;
45007;SDS011;30743;52.008;5.644;2024-02-28T01:09:28;137.27;;;20.20;;
45007;SDS011;30743;52.008;5.644;2024-02-28T01:11:53;110.13;;;18.33;;
45007;SDS011;30743;52.008;5.644;2024-02-28T01:14:19;90.40;;;18.60;;
45007;SDS011;30743;52.008;5.644;2024-02-28T01:16:45;99.60;;;19.20;;
45007;SDS011;30743;52.008;5.644;2024-02-28T01:19:10;127.40;;;18.73;;
45007;SDS011;30743;52.008;5.644;2024-02-28T01:21:36;175.63;;;20.52;;
45007;SDS011;30743;52.008;5.644;2024-02-28T01:24:01;72.53;;;17.35;;
45007;SDS011;30743;52.008;5.644;2024-02-28T01:26:27;77.18;;;18.58;;
45007;SDS011;30743;52.008;5.644;2024-02-28T01:28:53;143.88;;;20.60;;
45007;SDS011;30743;52.008;5.644;2024-02-28T01:31:18;105.75;;;19.17;;
45007;SDS011;30743;52.008;5.644;2024-02-28T01:33:44;137.23;;;19.27;;
45007;SDS011;30743;52.008;5.644;2024-02-28T01:36:10;73.50;;;16.75;;
45007;SDS011;30743;52.008;5.644;2024-02-28T01:38:36;154.95;;;20.05;;
45007;SDS011;30743;52.008;5.644;2024-02-28T01:41:02;105.68;;;17.83;;
45007;SDS011;30743;52.008;5.644;2024-02-28T01:43:29;128.60;;;18.65;;
45007;SDS011;30743;52.008;5.644;2024-02-28T01:45:55;165.13;;;19.35;;
45007;SDS011;30743;52.008;5.644;2024-02-28T01:48:21;175.68;;;20.60;;
45007;SDS011;30743;52.008;5.644;2024-02-28T01:50:46;135.85;;;19.77;;
45007;SDS011;30743;52.008;5.644;2024-02-28T01:53:12;104.50;;;18.77;;
45007;SDS011;30743;52.008;5.644;2024-02-28T01:55:39;123.60;;;19.67;;
45007;SDS011;30743;52.008;5.644;2024-02-28T01:58:05;149.93;;;18.67;;
45007;SDS011;30743;52.008;5.644;2024-02-28T02:00:34;136.23;;;20.58;;
45007;SDS011;30743;52.008;5.644;2024-02-28T02:03:02;126.63;;;19.63;;
45007;SDS011;30743;52.008;5.644;2024-02-28T02:05:28;122.68;;;18.35;;
45007;SDS011;30743;52.008;5.644;2024-02-28T02:07:55;161.38;;;19.05;;
45007;SDS011;30743;52.008;5.644;2024-02-28T02:10:23;104.88;;;16.77;;
45007;SDS011;30743;52.008;5.644;2024-02-28T02:12:50;114.10;;;19.55;;
45007;SDS011;30743;52.008;5.644;2024-02-28T02:15:15;135.13;;;18.27;;
45007;SDS011;30743;52.008;5.644;2024-02-28T02:17:41;75.13;;;18.83;;
45007;SDS011;30743;52.008;5.644;2024-02-28T02:20:07;84.18;;;17.95;;
45007;SDS011;30743;52.008;5.644;2024-02-28T02:22:39;105.40;;;19.27;;
45007;SDS011;30743;52.008;5.644;2024-02-28T02:25:05;87.82;;;17.67;;
45007;SDS011;30743;52.008;5.644;2024-02-28T02:27:31;76.88;;;17.00;;
45007;SDS011;30743;52.008;5.644;2024-02-28T02:29:57;60.60;;;20.20;;
45007;SDS011;30743;52.008;5.644;2024-02-28T02:32:22;90.38;;;18.60;;
45007;SDS011;30743;52.008;5.644;2024-02-28T02:34:48;109.38;;;19.30;;
45007;SDS011;30743;52.008;5.644;2024-02-28T02:37:13;74.30;;;16.48;;
45007;SDS011;30743;52.008;5.644;2024-02-28T02:39:39;148.70;;;19.92;;
45007;SDS011;30743;52.008;5.644;2024-02-28T02:42:05;132.85;;;19.55;;
45007;SDS011;30743;52.008;5.644;2024-02-28T02:44:30;98.68;;;19.17;;
45007;SDS011;30743;52.008;5.644;2024-02-28T02:46:56;89.55;;;18.38;;
45007;SDS011;30743;52.008;5.644;2024-02-28T02:49:22;87.57;;;16.10;;
45007;SDS011;30743;52.008;5.644;2024-02-28T02:51:47;65.57;;;16.83;;
45007;SDS011;30743;52.008;5.644;2024-02-28T02:54:13;92.15;;;17.67;;
45007;SDS011;30743;52.008;5.644;2024-02-28T02:56:41;96.18;;;17.33;;
45007;SDS011;30743;52.008;5.644;2024-02-28T02:59:07;133.18;;;18.15;;
45007;SDS011;30743;52.008;5.644;2024-02-28T03:01:34;53.97;;;16.63;;
45007;SDS011;30743;52.008;5.644;2024-02-28T03:04:00;132.02;;;19.98;;
45007;SDS011;30743;52.008;5.644;2024-02-28T03:06:25;72.93;;;17.55;;
45007;SDS011;30743;52.008;5.644;2024-02-28T03:08:51;90.10;;;17.63;;
45007;SDS011;30743;52.008;5.644;2024-02-28T03:11:17;97.40;;;18.10;;
45007;SDS011;30743;52.008;5.644;2024-02-28T03:13:42;57.45;;;17.33;;
45007;SDS011;30743;52.008;5.644;2024-02-28T03:16:08;60.55;;;16.42;;
45007;SDS011;30743;52.008;5.644;2024-02-28T03:18:33;78.45;;;16.08;;
45007;SDS011;30743;52.008;5.644;2024-02-28T03:20:59;59.30;;;14.85;;
45007;SDS011;30743;52.008;5.644;2024-02-28T03:23:24;67.10;;;17.30;;
45007;SDS011;30743;52.008;5.644;2024-02-28T03:25:50;81.57;;;15.98;;
45007;SDS011;30743;52.008;5.644;2024-02-28T03:28:16;37.90;;;13.88;;
45007;SDS011;30743;52.008;5.644;2024-02-28T03:30:41;55.75;;;14.32;;
45007;SDS011;30743;52.008;5.644;2024-02-28T03:33:07;96.75;;;14.95;;
45007;SDS011;30743;52.008;5.644;2024-02-28T03:35:33;68.05;;;16.20;;
45007;SDS011;30743;52.008;5.644;2024-02-28T03:37:58;55.03;;;13.90;;
45007;SDS011;30743;52.008;5.644;2024-02-28T03:40:24;100.85;;;15.38;;
45007;SDS011;30743;52.008;5.644;2024-02-28T03:42:49;56.22;;;13.82;;
45007;SDS011;30743;52.008;5.644;2024-02-28T03:45:15;39.75;;;12.77;;
45007;SDS011;30743;52.008;5.644;2024-02-28T03:47:40;83.82;;;14.88;;
45007;SDS011;30743;52.008;5.644;2024-02-28T03:50:06;74.93;;;15.50;;
45007;SDS011;30743;52.008;5.644;2024-02-28T03:52:32;73.57;;;13.13;;
45007;SDS011;30743;52.008;5.644;2024-02-28T03:54:58;129.63;;;15.50;;
45007;SDS011;30743;52.008;5.644;2024-02-28T03:57:23;73.68;;;13.55;;
45007;SDS011;30743;52.008;5.644;2024-02-28T03:59:49;77.25;;;13.07;;
45007;SDS011;30743;52.008;5.644;2024-02-28T04:02:14;36.22;;;12.60;;
45007;SDS011;30743;52.008;5.644;2024-02-28T04:04:40;62.33;;;12.07;;
45007;SDS011;30743;52.008;5.644;2024-02-28T04:07:05;65.57;;;12.70;;
45007;SDS011;30743;52.008;5.644;2024-02-28T04:09:31;56.78;;;12.85;;
45007;SDS011;30743;52.008;5.644;2024-02-28T04:11:56;45.53;;;12.57;;
45007;SDS011;30743;52.008;5.644;2024-02-28T04:14:22;31.58;;;12.65;;
45007;SDS011;30743;52.008;5.644;2024-02-28T04:16:47;34.40;;;11.55;;
45007;SDS011;30743;52.008;5.644;2024-02-28T04:19:15;28.25;;;12.25;;
45007;SDS011;30743;52.008;5.644;2024-02-28T04:21:41;69.78;;;12.80;;
45007;SDS011;30743;52.008;5.644;2024-02-28T04:24:06;37.55;;;11.77;;
45007;SDS011;30743;52.008;5.644;2024-02-28T04:26:32;20.52;;;11.98;;
45007;SDS011;30743;52.008;5.644;2024-02-28T04:28:58;21.70;;;12.05;;
45007;SDS011;30743;52.008;5.644;2024-02-28T04:31:24;32.22;;;11.82;;
45007;SDS011;30743;52.008;5.644;2024-02-28T04:33:49;31.85;;;12.35;;
45007;SDS011;30743;52.008;5.644;2024-02-28T04:36:15;23.58;;;11.52;;
45007;SDS011;30743;52.008;5.644;2024-02-28T04:38:41;15.50;;;11.48;;
45007;SDS011;30743;52.008;5.644;2024-02-28T04:41:06;16.27;;;11.20;;
45007;SDS011;30743;52.008;5.644;2024-02-28T04:43:32;17.30;;;11.18;;
45007;SDS011;30743;52.008;5.644;2024-02-28T04:45:57;15.07;;;10.07;;
45007;SDS011;30743;52.008;5.644;2024-02-28T04:48:23;16.75;;;10.75;;
45007;SDS011;30743;52.008;5.644;2024-02-28T04:50:49;14.05;;;10.27;;
45007;SDS011;30743;52.008;5.644;2024-02-28T04:53:14;16.75;;;12.00;;
45007;SDS011;30743;52.008;5.644;2024-02-28T04:55:40;16.02;;;10.75;;
45007;SDS011;30743;52.008;5.644;2024-02-28T04:58:05;17.60;;;10.75;;
45007;SDS011;30743;52.008;5.644;2024-02-28T05:00:31;12.63;;;9.93;;
45007;SDS011;30743;52.008;5.644;2024-02-28T05:02:57;17.38;;;11.57;;
45007;SDS011;30743;52.008;5.644;2024-02-28T05:05:22;15.55;;;10.70;;
45007;SDS011;30743;52.008;5.644;2024-02-28T05:07:48;15.43;;;10.82;;
45007;SDS011;30743;52.008;5.644;2024-02-28T05:10:13;14.05;;;10.35;;
45007;SDS011;30743;52.008;5.644;2024-02-28T05:12:39;17.42;;;11.52;;
45007;SDS011;30743;52.008;5.644;2024-02-28T05:15:05;16.90;;;11.93;;
45007;SDS011;30743;52.008;5.644;2024-02-28T05:17:31;16.63;;;11.77;;
45007;SDS011;30743;52.008;5.644;2024-02-28T05:19:57;18.48;;;11.85;;
45007;SDS011;30743;52.008;5.644;2024-02-28T05:22:23;18.77;;;11.85;;
45007;SDS011;30743;52.008;5.644;2024-02-28T05:24:48;18.15;;;12.65;;
45007;SDS011;30743;52.008;5.644;2024-02-28T05:27:14;18.55;;;11.98;;
45007;SDS011;30743;52.008;5.644;2024-02-28T05:29:39;20.95;;;13.35;;
45007;SDS011;30743;52.008;5.644;2024-02-28T05:32:07;17.45;;;12.57;;
45007;SDS011;30743;52.008;5.644;2024-02-28T05:34:33;18.80;;;12.52;;
45007;SDS011;30743;52.008;5.644;2024-02-28T05:36:59;17.63;;;12.82;;
45007;SDS011;30743;52.008;5.644;2024-02-28T05:39:26;18.17;;;13.13;;
45007;SDS011;30743;52.008;5.644;2024-02-28T05:41:54;19.20;;;12.18;;
45007;SDS011;30743;52.008;5.644;2024-02-28T05:44:19;18.05;;;12.35;;
45007;SDS011;30743;52.008;5.644;2024-02-28T05:46:45;17.48;;;12.27;;
45007;SDS011;30743;52.008;5.644;2024-02-28T05:49:11;20.88;;;13.27;;
45007;SDS011;30743;52.008;5.644;2024-02-28T05:51:36;19.58;;;12.23;;
45007;SDS011;30743;52.008;5.644;2024-02-28T05:54:02;17.13;;;12.23;;
45007;SDS011;30743;52.008;5.644;2024-02-28T05:56:28;16.30;;;11.63;;
45007;SDS011;30743;52.008;5.644;2024-02-28T05:58:55;17.90;;;11.68;;
45007;SDS011;30743;52.008;5.644;2024-02-28T06:01:20;18.95;;;12.15;;
45007;SDS011;30743;52.008;5.644;2024-02-28T06:03:47;18.73;;;13.00;;
45007;SDS011;30743;52.008;5.644;2024-02-28T06:06:13;17.00;;;12.65;;
45007;SDS011;30743;52.008;5.644;2024-02-28T06:08:40;21.63;;;12.95;;
45007;SDS011;30743;52.008;5.644;2024-02-28T06:11:06;17.95;;;12.60;;
45007;SDS011;30743;52.008;5.644;2024-02-28T06:13:32;21.25;;;13.43;;
45007;SDS011;30743;52.008;5.644;2024-02-28T06:15:58;20.27;;;13.30;;
45007;SDS011;30743;52.008;5.644;2024-02-28T06:18:25;19.25;;;12.70;;
45007;SDS011;30743;52.008;5.644;2024-02-28T06:20:54;18.35;;;13.10;;
45007;SDS011;30743;52.008;5.644;2024-02-28T06:23:24;19.45;;;13.80;;
45007;SDS011;30743;52.008;5.644;2024-02-28T06:25:49;18.67;;;13.37;;
45007;SDS011;30743;52.008;5.644;2024-02-28T06:28:15;20.42;;;14.60;;
45007;SDS011;30743;52.008;5.644;2024-02-28T06:30:42;19.73;;;13.90;;
45007;SDS011;30743;52.008;5.644;2024-02-28T06:33:09;23.48;;;14.93;;
45007;SDS011;30743;52.008;5.644;2024-02-28T06:35:35;19.67;;;14.45;;
45007;SDS011;30743;52.008;5.644;2024-02-28T06:38:01;18.67;;;14.07;;
45007;SDS011;30743;52.008;5.644;2024-02-28T06:40:26;20.73;;;14.73;;
45007;SDS011;30743;52.008;5.644;2024-02-28T06:42:53;19.50;;;14.18;;
45007;SDS011;30743;52.008;5.644;2024-02-28T06:45:19;22.80;;;14.70;;
45007;SDS011;30743;52.008;5.644;2024-02-28T06:47:44;19.25;;;14.82;;
45007;SDS011;30743;52.008;5.644;2024-02-28T06:50:11;20.63;;;14.45;;
45007;SDS011;30743;52.008;5.644;2024-02-28T06:52:37;19.52;;;14.25;;
45007;SDS011;30743;52.008;5.644;2024-02-28T06:55:02;21.58;;;15.00;;
45007;SDS011;30743;52.008;5.644;2024-02-28T06:57:35;20.10;;;14.45;;
45007;SDS011;30743;52.008;5.644;2024-02-28T07:00:05;25.20;;;15.20;;
45007;SDS011;30743;52.008;5.644;2024-02-28T07:02:33;21.77;;;15.50;;
45007;SDS011;30743;52.008;5.644;2024-02-28T07:05:02;19.10;;;14.13;;
45007;SDS011;30743;52.008;5.644;2024-02-28T07:07:29;20.73;;;14.98;;
45007;SDS011;30743;52.008;5.644;2024-02-28T07:09:58;19.67;;;14.52;;
45007;SDS011;30743;52.008;5.644;2024-02-28T07:12:23;20.70;;;14.43;;
45007;SDS011;30743;52.008;5.644;2024-02-28T07:14:49;17.45;;;14.18;;
45007;SDS011;30743;52.008;5.644;2024-02-28T07:17:15;22.20;;;14.77;;
45007;SDS011;30743;52.008;5.644;2024-02-28T07:19:41;20.10;;;14.77;;
45007;SDS011;30743;52.008;5.644;2024-02-28T07:22:06;21.92;;;14.65;;
45007;SDS011;30743;52.008;5.644;2024-02-28T07:24:32;21.77;;;14.88;;
45007;SDS011;30743;52.008;5.644;2024-02-28T07:26:57;22.13;;;14.35;;
45007;SDS011;30743;52.008;5.644;2024-02-28T07:29:23;17.85;;;13.85;;
45007;SDS011;30743;52.008;5.644;2024-02-28T07:31:51;20.35;;;14.95;;
45007;SDS011;30743;52.008;5.644;2024-02-28T07:34:17;21.02;;;14.82;;
45007;SDS011;30743;52.008;5.644;2024-02-28T07:36:43;19.45;;;14.27;;
45007;SDS011;30743;52.008;5.644;2024-02-28T07:39:08;20.23;;;14.27;;
45007;SDS011;30743;52.008;5.644;2024-02-28T07:41:37;19.50;;;14.52;;
45007;SDS011;30743;52.008;5.644;2024-02-28T07:44:06;21.02;;;15.02;;
45007;SDS011;30743;52.008;5.644;2024-02-28T07:46:36;21.60;;;14.70;;
45007;SDS011;30743;52.008;5.644;2024-02-28T07:49:01;24.35;;;14.95;;
45007;SDS011;30743;52.008;5.644;2024-02-28T07:51:27;19.95;;;14.98;;
45007;SDS011;30743;52.008;5.644;2024-02-28T07:53:53;18.50;;;13.65;;
45007;SDS011;30743;52.008;5.644;2024-02-28T07:56:19;22.40;;;14.80;;
45007;SDS011;30743;52.008;5.644;2024-02-28T07:58:46;21.15;;;14.55;;
45007;SDS011;30743;52.008;5.644;2024-02-28T08:01:12;21.83;;;14.40;;
45007;SDS011;30743;52.008;5.644;2024-02-28T08:03:38;22.05;;;14.50;;
45007;SDS011;30743;52.008;5.644;2024-02-28T08:06:03;23.40;;;14.52;;
45007;SDS011;30743;52.008;5.644;2024-02-28T08:08:29;21.95;;;15.52;;
45007;SDS011;30743;52.008;5.644;2024-02-28T08:10:55;24.00;;;15.57;;
45007;SDS011;30743;52.008;5.644;2024-02-28T08:13:20;20.48;;;15.85;;
45007;SDS011;30743;52.008;5.644;2024-02-28T08:15:46;21.60;;;15.77;;
45007;SDS011;30743;52.008;5.644;2024-02-28T08:18:12;22.42;;;15.35;;
45007;SDS011;30743;52.008;5.644;2024-02-28T08:20:37;23.10;;;15.20;;
45007;SDS011;30743;52.008;5.644;2024-02-28T08:23:06;22.13;;;15.75;;
45007;SDS011;30743;52.008;5.644;2024-02-28T08:25:32;20.57;;;15.17;;
45007;SDS011;30743;52.008;5.644;2024-02-28T08:27:58;20.00;;;14.50;;
45007;SDS011;30743;52.008;5.644;2024-02-28T08:30:23;27.17;;;16.10;;
45007;SDS011;30743;52.008;5.644;2024-02-28T08:32:50;22.63;;;15.77;;
45007;SDS011;30743;52.008;5.644;2024-02-28T08:35:16;22.15;;;15.05;;
45007;SDS011;30743;52.008;5.644;2024-02-28T08:37:43;26.05;;;15.00;;
45007;SDS011;30743;52.008;5.644;2024-02-28T08:40:09;20.77;;;15.20;;
45007;SDS011;30743;52.008;5.644;2024-02-28T08:42:36;24.02;;;15.88;;
45007;SDS011;30743;52.008;5.644;2024-02-28T08:45:02;29.38;;;16.02;;
45007;SDS011;30743;52.008;5.644;2024-02-28T08:47:28;23.75;;;16.00;;
45007;SDS011;30743;52.008;5.644;2024-02-28T08:49:54;25.38;;;15.93;;
45007;SDS011;30743;52.008;5.644;2024-02-28T08:52:20;26.05;;;16.00;;
45007;SDS011;30743;52.008;5.644;2024-02-28T08:54:46;25.25;;;14.73;;
45007;SDS011;30743;52.008;5.644;2024-02-28T08:57:13;21.88;;;15.88;;
45007;SDS011;30743;52.008;5.644;2024-02-28T08:59:39;25.45;;;17.05;;
45007;SDS011;30743;52.008;5.644;2024-02-28T09:02:05;22.85;;;15.68;;
45007;SDS011;30743;52.008;5.644;2024-02-28T09:04:31;24.10;;;15.88;;
45007;SDS011;30743;52.008;5.644;2024-02-28T09:06:57;22.02;;;16.35;;
45007;SDS011;30743;52.008;5.644;2024-02-28T09:09:22;21.90;;;15.75;;
45007;SDS011;30743;52.008;5.644;2024-02-28T09:11:48;24.00;;;17.70;;
45007;SDS011;30743;52.008;5.644;2024-02-28T09:14:13;24.67;;;16.27;;
45007;SDS011;30743;52.008;5.644;2024-02-28T09:16:39;22.27;;;15.55;;
45007;SDS011;30743;52.008;5.644;2024-02-28T09:19:05;26.33;;;17.45;;
45007;SDS011;30743;52.008;5.644;2024-02-28T09:21:30;25.90;;;17.15;;
45007;SDS011;30743;52.008;5.644;2024-02-28T09:23:56;24.75;;;17.10;;
45007;SDS011;30743;52.008;5.644;2024-02-28T09:26:22;26.10;;;18.00;;
45007;SDS011;30743;52.008;5.644;2024-02-28T09:28:47;32.25;;;18.45;;
45007;SDS011;30743;52.008;5.644;2024-02-28T09:31:13;27.63;;;18.63;;
45007;SDS011;30743;52.008;5.644;2024-02-28T09:33:40;31.85;;;19.95;;
45007;SDS011;30743;52.008;5.644;2024-02-28T09:36:06;27.05;;;18.10;;
45007;SDS011;30743;52.008;5.644;2024-02-28T09:38:31;33.17;;;19.52;;
45007;SDS011;30743;52.008;5.644;2024-02-28T09:40:57;31.52;;;20.42;;
45007;SDS011;30743;52.008;5.644;2024-02-28T09:43:36;27.98;;;19.65;;
45007;SDS011;30743;52.008;5.644;2024-02-28T09:46:07;29.67;;;18.48;;
45007;SDS011;30743;52.008;5.644;2024-02-28T09:48:37;29.20;;;18.52;;
45007;SDS011;30743;52.008;5.644;2024-02-28T09:51:04;32.80;;;20.42;;
45007;SDS011;30743;52.008;5.644;2024-02-28T09:53:30;27.55;;;18.92;;
45007;SDS011;30743;52.008;5.644;2024-02-28T09:55:56;30.63;;;18.83;;
45007;SDS011;30743;52.008;5.644;2024-02-28T09:58:21;28.50;;;17.88;;
45007;SDS011;30743;52.008;5.644;2024-02-28T10:00:48;26.35;;;18.45;;
45007;SDS011;30743;52.008;5.644;2024-02-28T10:03:18;34.80;;;21.70;;
45007;SDS011;30743;52.008;5.644;2024-02-28T10:05:44;30.73;;;21.33;;
45007;SDS011;30743;52.008;5.644;2024-02-28T10:08:11;41.13;;;22.52;;
45007;SDS011;30743;52.008;5.644;2024-02-28T10:10:38;30.40;;;20.73;;
45007;SDS011;30743;52.008;5.644;2024-02-28T10:13:03;31.45;;;19.67;;
45007;SDS011;30743;52.008;5.644;2024-02-28T10:15:30;32.38;;;19.70;;
45007;SDS011;30743;52.008;5.644;2024-02-28T10:17:56;34.00;;;21.60;;
45007;SDS011;30743;52.008;5.644;2024-02-28T10:20:21;30.38;;;18.92;;
45007;SDS011;30743;52.008;5.644;2024-02-28T10:22:47;28.40;;;19.33;;
45007;SDS011;30743;52.008;5.644;2024-02-28T10:25:13;30.20;;;18.33;;
45007;SDS011;30743;52.008;5.644;2024-02-28T10:27:38;28.80;;;16.95;;
45007;SDS011;30743;52.008;5.644;2024-02-28T10:30:06;27.88;;;17.77;;
45007;SDS011;30743;52.008;5.644;2024-02-28T10:32:32;26.83;;;18.25;;
45007;SDS011;30743;52.008;5.644;2024-02-28T10:35:02;25.67;;;18.08;;
45007;SDS011;30743;52.008;5.644;2024-02-28T10:37:28;31.48;;;18.60;;
45007;SDS011;30743;52.008;5.644;2024-02-28T10:39:56;26.77;;;16.83;;
45007;SDS011;30743;52.008;5.644;2024-02-28T10:42:22;27.52;;;16.90;;
45007;SDS011;30743;52.008;5.644;2024-02-28T10:44:50;27.90;;;18.10;;
45007;SDS011;30743;52.008;5.644;2024-02-28T10:47:17;28.75;;;19.00;;
45007;SDS011;30743;52.008;5.644;2024-02-28T10:49:43;24.35;;;16.98;;
45007;SDS011;30743;52.008;5.644;2024-02-28T10:52:09;24.77;;;17.45;;
45007;SDS011;30743;52.008;5.644;2024-02-28T10:54:38;23.63;;;17.30;;
45007;SDS011;30743;52.008;5.644;2024-02-28T10:57:07;24.33;;;17.50;;
45007;SDS011;30743;52.008;5.644;2024-02-28T10:59:33;26.00;;;17.20;;
45007;SDS011;30743;52.008;5.644;2024-02-28T11:02:02;25.60;;;16.60;;
45007;SDS011;30743;52.008;5.644;2024-02-28T11:04:28;23.73;;;16.98;;
45007;SDS011;30743;52.008;5.644;2024-02-28T11:06:55;23.15;;;16.00;;
45007;SDS011;30743;52.008;5.644;2024-02-28T11:09:21;26.45;;;16.77;;
45007;SDS011;30743;52.008;5.644;2024-02-28T11:11:48;20.58;;;15.70;;
45007;SDS011;30743;52.008;5.644;2024-02-28T11:14:17;23.52;;;15.70;;
45007;SDS011;30743;52.008;5.644;2024-02-28T11:16:47;21.73;;;15.30;;
45007;SDS011;30743;52.008;5.644;2024-02-28T11:19:19;22.38;;;16.52;;
45007;SDS011;30743;52.008;5.644;2024-02-28T11:21:54;21.55;;;15.60;;
45007;SDS011;30743;52.008;5.644;2024-02-28T11:24:23;21.60;;;15.95;;
45007;SDS011;30743;52.008;5.644;2024-02-28T11:26:52;23.42;;;16.35;;
45007;SDS011;30743;52.008;5.644;2024-02-28T11:29:27;23.58;;;15.88;;
45007;SDS011;30743;52.008;5.644;2024-02-28T11:31:54;20.95;;;16.15;;
45007;SDS011;30743;52.008;5.644;2024-02-28T11:34:20;26.60;;;16.42;;
45007;SDS011;30743;52.008;5.644;2024-02-28T11:36:47;23.20;;;16.17;;
45007;SDS011;30743;52.008;5.644;2024-02-28T11:39:14;22.60;;;16.88;;
45007;SDS011;30743;52.008;5.644;2024-02-28T11:41:39;25.38;;;17.27;;
45007;SDS011;30743;52.008;5.644;2024-02-28T11:44:05;25.25;;;15.98;;
45007;SDS011;30743;52.008;5.644;2024-02-28T11:46:30;21.02;;;15.10;;
45007;SDS011;30743;52.008;5.644;2024-02-28T11:48:57;21.40;;;15.40;;
45007;SDS011;30743;52.008;5.644;2024-02-28T11:51:22;20.70;;;14.95;;
45007;SDS011;30743;52.008;5.644;2024-02-28T11:53:48;22.60;;;16.00;;
45007;SDS011;30743;52.008;5.644;2024-02-28T11:56:14;23.10;;;16.63;;
45007;SDS011;30743;52.008;5.644;2024-02-28T11:58:51;22.30;;;16.67;;
45007;SDS011;30743;52.008;5.644;2024-02-28T12:01:17;20.63;;;14.82;;
45007;SDS011;30743;52.008;5.644;2024-02-28T12:03:46;19.80;;;13.75;;
45007;SDS011;30743;52.008;5.644;2024-02-28T12:06:12;19.95;;;14.77;;
45007;SDS011;30743;52.008;5.644;2024-02-28T12:08:37;21.05;;;15.00;;
45007;SDS011;30743;52.008;5.644;2024-02-28T12:11:09;21.48;;;15.95;;
45007;SDS011;30743;52.008;5.644;2024-02-28T12:13:36;20.90;;;14.15;;
45007;SDS011;30743;52.008;5.644;2024-02-28T12:16:02;20.42;;;13.90;;
45007;SDS011;30743;52.008;5.644;2024-02-28T12:18:29;22.63;;;14.43;;
45007;SDS011;30743;52.008;5.644;2024-02-28T12:20:54;22.50;;;14.38;;
45007;SDS011;30743;52.008;5.644;2024-02-28T12:23:20;19.88;;;13.48;;
45007;SDS011;30743;52.008;5.644;2024-02-28T12:25:46;19.10;;;13.13;;
45007;SDS011;30743;52.008;5.644;2024-02-28T12:28:11;19.95;;;14.70;;
45007;SDS011;30743;52.008;5.644;2024-02-28T12:30:41;23.60;;;14.95;;
45007;SDS011;30743;52.008;5.644;2024-02-28T12:33:07;21.33;;;14.50;;
45007;SDS011;30743;52.008;5.644;2024-02-28T12:35:34;22.65;;;14.38;;
45007;SDS011;30743;52.008;5.644;2024-02-28T12:37:59;23.02;;;15.63;;
45007;SDS011;30743;52.008;5.644;2024-02-28T12:40:25;22.65;;;15.80;;
45007;SDS011;30743;52.008;5.644;2024-02-28T12:42:51;22.42;;;15.35;;
45007;SDS011;30743;52.008;5.644;2024-02-28T12:45:16;22.63;;;15.85;;
45007;SDS011;30743;52.008;5.644;2024-02-28T12:47:42;23.00;;;15.27;;
45007;SDS011;30743;52.008;5.644;2024-02-28T12:50:07;21.77;;;15.88;;
45007;SDS011;30743;52.008;5.644;2024-02-28T12:52:34;22.60;;;15.38;;
45007;SDS011;30743;52.008;5.644;2024-02-28T12:55:00;21.70;;;14.20;;
45007;SDS011;30743;52.008;5.644;2024-02-28T12:57:26;18.83;;;14.30;;
45007;SDS011;30743;52.008;5.644;2024-02-28T12:59:51;19.50;;;14.40;;
45007;SDS011;30743;52.008;5.644;2024-02-28T13:02:17;19.10;;;13.10;;
45007;SDS011;30743;52.008;5.644;2024-02-28T13:04:44;21.30;;;13.52;;
45007;SDS011;30743;52.008;5.644;2024-02-28T13:07:10;19.00;;;13.02;;
45007;SDS011;30743;52.008;5.644;2024-02-28T13:09:36;17.30;;;13.23;;
45007;SDS011;30743;52.008;5.644;2024-02-28T13:12:02;17.10;;;12.95;;
45007;SDS011;30743;52.008;5.644;2024-02-28T13:14:29;16.02;;;12.23;;
45007;SDS011;30743;52.008;5.644;2024-02-28T13:16:55;16.80;;;12.55;;
45007;SDS011;30743;52.008;5.644;2024-02-28T13:19:20;16.52;;;11.75;;
45007;SDS011;30743;52.008;5.644;2024-02-28T13:21:46;17.80;;;13.23;;
45007;SDS011;30743;52.008;5.644;2024-02-28T13:24:11;17.30;;;12.65;;
45007;SDS011;30743;52.008;5.644;2024-02-28T13:26:40;17.35;;;11.68;;
45007;SDS011;30743;52.008;5.644;2024-02-28T13:29:05;18.02;;;12.77;;
45007;SDS011;30743;52.008;5.644;2024-02-28T13:31:32;18.40;;;11.93;;
45007;SDS011;30743;52.008;5.644;2024-02-28T13:33:58;17.70;;;12.45;;
45007;SDS011;30743;52.008;5.644;2024-02-28T13:36:24;15.30;;;11.18;;
45007;SDS011;30743;52.008;5.644;2024-02-28T13:38:49;13.65;;;10.70;;
45007;SDS011;30743;52.008;5.644;2024-02-28T13:41:15;15.85;;;10.57;;
45007;SDS011;30743;52.008;5.644;2024-02-28T13:43:41;16.88;;;10.85;;
45007;SDS011;30743;52.008;5.644;2024-02-28T13:46:06;14.77;;;10.63;;
45007;SDS011;30743;52.008;5.644;2024-02-28T13:48:32;11.15;;;9.55;;
45007;SDS011;30743;52.008;5.644;2024-02-28T13:50:58;12.07;;;10.13;;
45007;SDS011;30743;52.008;5.644;2024-02-28T13:53:24;12.80;;;9.38;;
45007;SDS011;30743;52.008;5.644;2024-02-28T13:55:50;12.07;;;9.55;;
45007;SDS011;30743;52.008;5.644;2024-02-28T13:58:16;13.75;;;9.25;;
45007;SDS011;30743;52.008;5.644;2024-02-28T14:00:43;11.13;;;8.40;;
45007;SDS011;30743;52.008;5.644;2024-02-28T14:03:12;13.27;;;7.75;;
45007;SDS011;30743;52.008;5.644;2024-02-28T14:05:38;9.90;;;7.57;;
45007;SDS011;30743;52.008;5.644;2024-02-28T14:08:04;9.75;;;7.57;;
45007;SDS011;30743;52.008;5.644;2024-02-28T14:10:32;11.30;;;7.90;;
45007;SDS011;30743;52.008;5.644;2024-02-28T14:12:58;12.20;;;8.18;;
45007;SDS011;30743;52.008;5.644;2024-02-28T14:15:24;11.68;;;8.85;;